createdAt,value
2018-12-27T00:00:20.387Z,34.57
2018-12-27T00:02:54.852Z,29.03
2018-12-27T00:05:20.433Z,36.53
2018-12-27T00:07:49.516Z,32.03
2018-12-27T00:10:18.525Z,30.17
2018-12-27T00:12:47.310Z,35.30
2018-12-27T00:15:16.180Z,33.67
2018-12-27T00:17:44.961Z,29.53
2018-12-27T00:20:14.177Z,33.37
2018-12-27T00:22:43.369Z,33.13
2018-12-27T00:25:12.148Z,35.03
2018-12-27T00:27:41.041Z,30.80
2018-12-27T00:30:09.990Z,34.47
2018-12-27T00:32:38.922Z,37.00
2018-12-27T00:35:07.987Z,34.27
2018-12-27T00:37:36.935Z,31.57
2018-12-27T00:40:05.882Z,33.97
2018-12-27T00:42:35.074Z,32.70
2018-12-27T00:45:04.353Z,29.60
2018-12-27T00:47:33.309Z,26.70
2018-12-27T00:50:02.258Z,27.77
2018-12-27T00:52:31.472Z,28.23
2018-12-27T00:55:00.570Z,27.70
2018-12-27T00:57:29.518Z,29.03
2018-12-27T00:59:58.464Z,30.43
2018-12-27T01:02:28.017Z,29.77
2018-12-27T01:04:57.252Z,31.30
2018-12-27T01:07:26.185Z,29.07
2018-12-27T01:09:55.785Z,32.13
2018-12-27T01:12:24.736Z,28.67
2018-12-27T01:14:54.013Z,28.80
2018-12-27T01:17:23.212Z,28.63
2018-12-27T01:19:52.186Z,30.60
2018-12-27T01:22:21.116Z,30.43
2018-12-27T01:24:50.077Z,28.87
2018-12-27T01:27:19.548Z,29.97
2018-12-27T01:29:48.481Z,32.17
2018-12-27T01:32:17.769Z,30.57
2018-12-27T01:34:47.124Z,31.23
2018-12-27T01:37:16.574Z,35.70
2018-12-27T01:39:45.518Z,27.47
2018-12-27T01:42:14.721Z,31.20
2018-12-27T01:44:43.700Z,30.00
2018-12-27T01:47:12.962Z,31.83
2018-12-27T01:49:41.889Z,31.67
2018-12-27T01:52:11.229Z,30.07
2018-12-27T01:54:40.453Z,25.30
2018-12-27T01:57:09.389Z,28.90
2018-12-27T01:59:38.341Z,27.40
2018-12-27T02:02:07.925Z,25.57
2018-12-27T02:04:36.872Z,27.93
2018-12-27T02:07:06.170Z,34.10
2018-12-27T02:09:35.401Z,32.40
2018-12-27T02:12:04.692Z,38.33
2018-12-27T02:14:33.700Z,39.37
2018-12-27T02:17:02.682Z,40.13
2018-12-27T02:19:31.640Z,38.90
2018-12-27T02:22:00.579Z,33.73
2018-12-27T02:24:29.512Z,37.77
2018-12-27T02:26:58.458Z,38.33
2018-12-27T02:29:27.709Z,35.30
2018-12-27T02:31:56.645Z,35.73
2018-12-27T02:34:25.855Z,36.23
2018-12-27T02:36:54.793Z,34.97
2018-12-27T02:39:23.728Z,30.43
2018-12-27T02:41:52.781Z,34.93
2018-12-27T02:44:21.726Z,32.73
2018-12-27T02:46:51.276Z,33.67
2018-12-27T02:49:20.228Z,31.60
2018-12-27T02:52:04.181Z,35.27
2018-12-27T02:54:33.432Z,27.83
2018-12-27T02:57:02.389Z,29.70
2018-12-27T02:59:31.420Z,28.93
2018-12-27T03:02:00.389Z,29.20
2018-12-27T03:04:29.394Z,32.57
2018-12-27T03:06:58.389Z,36.40
2018-12-27T03:09:27.321Z,35.57
2018-12-27T03:11:56.980Z,36.10
2018-12-27T03:14:25.934Z,34.30
2018-12-27T03:16:54.871Z,33.93
2018-12-27T03:19:23.831Z,42.60
2018-12-27T03:21:53.783Z,59.33
2018-12-27T03:24:22.704Z,37.70
2018-12-27T03:26:52.041Z,35.33
2018-12-27T03:29:21.332Z,32.13
2018-12-27T03:31:50.594Z,34.40
2018-12-27T03:34:19.557Z,45.60
2018-12-27T03:36:48.511Z,39.33
2018-12-27T03:39:17.461Z,47.87
2018-12-27T03:41:46.654Z,49.50
2018-12-27T03:44:15.589Z,46.47
2018-12-27T03:46:44.594Z,32.67
2018-12-27T03:49:14.285Z,34.47
2018-12-27T03:51:43.581Z,28.90
2018-12-27T03:54:12.529Z,29.10
2018-12-27T03:56:41.482Z,31.37
2018-12-27T03:59:10.472Z,50.57
2018-12-27T04:01:39.421Z,34.47
2018-12-27T04:04:09.041Z,34.47
2018-12-27T04:06:37.986Z,28.93
2018-12-27T04:09:07.014Z,28.57
2018-12-27T04:11:36.291Z,30.57
2018-12-27T04:14:05.336Z,32.03
2018-12-27T04:16:34.205Z,30.10
2018-12-27T04:19:03.580Z,32.30
2018-12-27T04:21:32.348Z,33.57
2018-12-27T04:24:01.456Z,27.67
2018-12-27T04:26:30.696Z,32.53
2018-12-27T04:28:59.469Z,31.57
2018-12-27T04:31:28.606Z,33.73
2018-12-27T04:33:57.856Z,36.03
2018-12-27T04:36:27.651Z,27.37
2018-12-27T04:38:56.692Z,27.73
2018-12-27T04:41:26.446Z,30.23
2018-12-27T04:43:55.250Z,29.93
2018-12-27T04:46:24.630Z,29.03
2018-12-27T04:48:53.432Z,30.33
2018-12-27T04:51:22.211Z,31.77
2018-12-27T04:53:51.281Z,29.77
2018-12-27T04:56:20.421Z,31.93
2018-12-27T04:58:49.528Z,36.57
2018-12-27T05:01:18.382Z,31.40
2018-12-27T05:03:47.480Z,30.17
2018-12-27T05:06:16.293Z,28.90
2018-12-27T05:08:45.348Z,29.67
2018-12-27T05:11:14.132Z,27.93
2018-12-27T05:13:43.269Z,29.87
2018-12-27T05:16:12.053Z,33.23
2018-12-27T05:18:41.282Z,31.77
2018-12-27T05:21:10.145Z,34.67
2018-12-27T05:23:38.926Z,30.57
2018-12-27T05:26:07.983Z,28.83
2018-12-27T05:28:37.189Z,29.57
2018-12-27T05:31:06.276Z,36.47
2018-12-27T05:33:35.053Z,32.67
2018-12-27T05:36:04.393Z,33.13
2018-12-27T05:38:33.169Z,28.27
2018-12-27T05:41:02.801Z,29.00
2018-12-27T05:43:33.503Z,29.53
2018-12-27T05:46:02.338Z,31.50
2018-12-27T05:48:31.305Z,31.17
2018-12-27T05:51:02.415Z,30.23
2018-12-27T05:53:31.193Z,29.50
2018-12-27T05:55:59.982Z,30.43
2018-12-27T05:58:29.180Z,28.47
2018-12-27T06:00:58.225Z,28.60
2018-12-27T06:03:27.777Z,28.10
2018-12-27T06:05:56.871Z,29.97
2018-12-27T06:08:25.930Z,26.07
2018-12-27T06:10:54.728Z,28.27
2018-12-27T06:13:24.152Z,29.20
2018-12-27T06:15:52.934Z,30.57
2018-12-27T06:18:21.745Z,27.23
2018-12-27T06:20:50.868Z,29.97
2018-12-27T06:23:19.663Z,28.30
2018-12-27T06:25:48.437Z,29.57
2018-12-27T06:28:17.273Z,29.13
2018-12-27T06:30:46.248Z,25.03
2018-12-27T06:33:15.317Z,26.90
2018-12-27T06:35:44.106Z,24.07
2018-12-27T06:38:12.914Z,22.00
2018-12-27T06:40:42.011Z,26.40
2018-12-27T06:43:11.129Z,25.70
2018-12-27T06:45:41.041Z,22.97
2018-12-27T06:48:09.817Z,23.20
2018-12-27T06:50:38.913Z,26.43
2018-12-27T06:53:07.996Z,26.20
2018-12-27T06:55:36.769Z,22.20
2018-12-27T06:58:05.857Z,22.50
2018-12-27T07:00:35.293Z,23.00
2018-12-27T07:03:04.156Z,22.03
2018-12-27T07:05:32.935Z,21.97
2018-12-27T07:08:01.738Z,24.30
2018-12-27T07:10:30.524Z,23.17
2018-12-27T07:12:59.296Z,24.33
2018-12-27T07:15:28.189Z,25.93
2018-12-27T07:17:57.289Z,25.93
2018-12-27T07:20:26.072Z,22.93
2018-12-27T07:22:55.136Z,23.87
2018-12-27T07:25:23.927Z,26.20
2018-12-27T07:27:52.724Z,24.17
2018-12-27T07:30:21.542Z,25.63
2018-12-27T07:32:50.324Z,23.30
2018-12-27T07:35:19.180Z,23.87
2018-12-27T07:37:47.974Z,21.77
2018-12-27T07:40:16.761Z,20.00
2018-12-27T07:42:45.875Z,17.93
2018-12-27T07:45:15.100Z,21.37
